createdAt,value
2022-09-23T00:02:08.745Z,21.55
2022-09-23T00:12:09.991Z,21.54
2022-09-23T00:22:11.257Z,21.52
2022-09-23T00:32:12.499Z,21.49
2022-09-23T00:42:13.753Z,21.52
2022-09-23T00:52:15.063Z,21.51
2022-09-23T01:02:16.336Z,21.51
2022-09-23T01:12:17.633Z,21.49
2022-09-23T01:22:18.894Z,21.48
2022-09-23T01:32:20.149Z,21.45
2022-09-23T01:42:21.403Z,21.45
2022-09-23T01:52:22.636Z,21.37
2022-09-23T02:02:23.874Z,21.42
2022-09-23T02:12:25.210Z,21.38
2022-09-23T02:22:26.448Z,21.37
2022-09-23T02:32:27.669Z,21.36
2022-09-23T02:42:28.882Z,21.36
2022-09-23T02:52:30.097Z,21.42
2022-09-23T03:02:31.382Z,21.44
2022-09-23T03:12:32.637Z,21.45
2022-09-23T03:22:33.938Z,21.42
2022-09-23T03:32:35.192Z,21.45
2022-09-23T03:42:36.510Z,21.41
2022-09-23T03:52:37.768Z,21.44
2022-09-23T04:02:38.981Z,21.38
2022-09-23T04:12:40.236Z,21.41
2022-09-23T04:22:41.452Z,21.42
2022-09-23T04:32:42.732Z,21.38
2022-09-23T04:42:43.944Z,21.35
2022-09-23T04:52:45.167Z,21.37
2022-09-23T05:02:46.429Z,21.38
2022-09-23T05:12:47.738Z,21.36
2022-09-23T05:22:48.941Z,21.33
2022-09-23T05:32:50.186Z,21.35
2022-09-23T05:42:51.476Z,21.34
2022-09-23T05:52:52.712Z,21.32
2022-09-23T06:02:54.033Z,21.37
2022-09-23T06:12:55.306Z,21.33
2022-09-23T06:22:56.640Z,21.30
2022-09-23T06:32:57.896Z,21.30
2022-09-23T06:42:59.250Z,21.28
2022-09-23T06:53:07.703Z,21.29
2022-09-23T07:03:15.701Z,21.28
2022-09-23T07:13:17.805Z,21.28
2022-09-23T07:33:47.904Z,21.32
2022-09-23T07:43:49.203Z,21.34
2022-09-23T07:53:56.741Z,21.41
2022-09-23T08:04:05.730Z,21.45
2022-09-23T08:14:13.750Z,21.49
2022-09-23T08:24:21.678Z,21.50
2022-09-23T08:34:29.691Z,21.53
2022-09-23T08:44:38.542Z,21.54
2022-09-23T08:54:46.764Z,21.56
2022-09-23T09:04:54.748Z,21.58
2022-09-23T09:15:02.716Z,21.58
2022-09-23T09:25:14.372Z,21.62
2022-09-23T09:35:19.803Z,21.64
2022-09-23T09:45:26.031Z,21.66
2022-09-23T09:55:34.687Z,21.71
2022-09-23T10:05:46.031Z,21.70
2022-09-23T10:15:53.684Z,21.73
2022-09-23T10:26:01.690Z,21.73
2022-09-23T10:36:09.667Z,21.74
2022-09-23T10:46:17.716Z,21.76
2022-09-23T10:56:25.655Z,21.76
2022-09-23T11:06:35.694Z,21.76
2022-09-23T11:16:43.728Z,21.76
2022-09-23T11:26:51.804Z,21.77
2022-09-23T11:36:59.601Z,21.78
2022-09-23T11:47:08.229Z,21.77
2022-09-23T11:57:15.698Z,21.80
2022-09-23T12:07:23.726Z,21.82
2022-09-23T12:17:31.711Z,21.82
2022-09-23T12:27:39.763Z,21.81
2022-09-23T12:37:48.746Z,21.80
2022-09-23T12:47:54.017Z,21.81
2022-09-23T12:57:55.540Z,21.80
2022-09-23T13:18:25.816Z,21.83
2022-09-23T13:28:30.755Z,21.82
2022-09-23T13:38:38.731Z,21.83
2022-09-23T13:48:44.620Z,21.83
2022-09-23T13:58:54.713Z,21.80
2022-09-23T14:09:02.760Z,21.82
2022-09-23T14:19:11.757Z,21.81
2022-09-23T14:29:19.762Z,21.83
2022-09-23T14:39:27.773Z,21.81
2022-09-23T14:49:31.253Z,21.80
2022-09-23T14:59:32.661Z,21.79
2022-09-23T15:30:25.020Z,21.80
2022-09-23T15:40:33.917Z,21.76
2022-09-23T15:50:44.226Z,21.74
2022-09-23T16:00:55.892Z,21.74
2022-09-23T16:10:57.829Z,21.74
2022-09-23T16:20:59.272Z,21.74
2022-09-23T16:31:00.644Z,21.73
2022-09-23T16:41:06.749Z,21.71
2022-09-23T16:51:15.806Z,21.71
2022-09-23T17:01:23.875Z,21.72
2022-09-23T17:11:25.297Z,21.70
2022-09-23T17:21:26.566Z,21.72
2022-09-23T17:31:30.942Z,21.70
2022-09-23T17:41:32.497Z,21.69
2022-09-23T17:51:33.794Z,21.67
2022-09-23T18:01:35.169Z,21.65
2022-09-23T18:11:36.561Z,21.67
2022-09-23T18:21:37.853Z,21.64
2022-09-23T18:31:39.256Z,21.65
2022-09-23T18:41:40.604Z,21.64
2022-09-23T18:51:41.912Z,21.64
2022-09-23T19:01:46.293Z,21.61
2022-09-23T19:11:47.793Z,21.62
2022-09-23T19:21:49.042Z,21.61
2022-09-23T19:31:50.402Z,21.61
2022-09-23T19:41:51.843Z,21.59
2022-09-23T19:51:53.075Z,21.57
2022-09-23T20:01:54.452Z,21.59
2022-09-23T20:11:55.804Z,21.55
2022-09-23T20:21:57.142Z,21.57
2022-09-23T20:31:58.489Z,21.57
2022-09-23T20:41:59.863Z,21.57
2022-09-23T20:52:01.269Z,21.54
2022-09-23T21:02:02.702Z,21.57
2022-09-23T21:12:04.062Z,21.54
2022-09-23T21:22:05.408Z,21.53
2022-09-23T21:32:06.655Z,21.51
2022-09-23T21:42:07.988Z,21.51
2022-09-23T21:52:09.217Z,21.55
2022-09-23T22:02:10.516Z,21.54
2022-09-23T22:12:11.831Z,21.53
2022-09-23T22:22:13.195Z,21.51
2022-09-23T22:32:14.503Z,21.51
2022-09-23T22:42:15.876Z,21.51
2022-09-23T22:52:17.159Z,21.54
2022-09-23T23:02:18.458Z,21.53
2022-09-23T23:12:19.718Z,21.52
2022-09-23T23:22:20.990Z,21.50
2022-09-23T23:32:24.072Z,21.48
2022-09-23T23:42:25.358Z,21.51
2022-09-23T23:52:26.582Z,21.50
